sensor_id;sensor_type;location;lat;lon;timestamp;P1;durP1;ratioP1;P2;durP2;ratioP2
46391;SDS011;32098;49.448;7.904;2024-03-25T00:00:49;6.07;;;3.03;;
46391;SDS011;32098;49.448;7.904;2024-03-25T00:03:14;6.60;;;3.20;;
46391;SDS011;32098;49.448;7.904;2024-03-25T00:05:41;5.57;;;3.30;;
46391;SDS011;32098;49.448;7.904;2024-03-25T00:08:06;5.97;;;3.07;;
46391;SDS011;32098;49.448;7.904;2024-03-25T00:10:33;5.10;;;3.23;;
46391;SDS011;32098;49.448;7.904;2024-03-25T00:12:59;6.00;;;3.33;;
46391;SDS011;32098;49.448;7.904;2024-03-25T00:15:27;6.20;;;3.17;;
46391;SDS011;32098;49.448;7.904;2024-03-25T00:17:53;7.43;;;3.53;;
46391;SDS011;32098;49.448;7.904;2024-03-25T00:20:18;5.17;;;3.57;;
46391;SDS011;32098;49.448;7.904;2024-03-25T00:22:44;5.30;;;2.93;;
46391;SDS011;32098;49.448;7.904;2024-03-25T00:25:10;6.07;;;2.70;;
46391;SDS011;32098;49.448;7.904;2024-03-25T00:27:35;7.03;;;3.03;;
46391;SDS011;32098;49.448;7.904;2024-03-25T00:30:01;6.07;;;2.97;;
46391;SDS011;32098;49.448;7.904;2024-03-25T00:32:28;6.57;;;3.47;;
46391;SDS011;32098;49.448;7.904;2024-03-25T00:34:53;6.50;;;3.63;;
46391;SDS011;32098;49.448;7.904;2024-03-25T00:37:19;7.20;;;2.87;;
46391;SDS011;32098;49.448;7.904;2024-03-25T00:39:45;6.43;;;3.23;;
46391;SDS011;32098;49.448;7.904;2024-03-25T00:42:12;4.47;;;2.97;;
46391;SDS011;32098;49.448;7.904;2024-03-25T00:44:38;5.63;;;2.80;;
46391;SDS011;32098;49.448;7.904;2024-03-25T00:47:04;9.27;;;3.53;;
46391;SDS011;32098;49.448;7.904;2024-03-25T00:49:29;4.30;;;3.00;;
46391;SDS011;32098;49.448;7.904;2024-03-25T00:51:55;4.83;;;2.80;;
46391;SDS011;32098;49.448;7.904;2024-03-25T00:54:21;6.17;;;2.63;;
46391;SDS011;32098;49.448;7.904;2024-03-25T00:56:49;6.03;;;2.63;;
46391;SDS011;32098;49.448;7.904;2024-03-25T00:59:16;6.63;;;3.23;;
46391;SDS011;32098;49.448;7.904;2024-03-25T01:01:43;5.57;;;2.67;;
46391;SDS011;32098;49.448;7.904;2024-03-25T01:04:08;5.63;;;2.77;;
46391;SDS011;32098;49.448;7.904;2024-03-25T01:06:34;4.07;;;2.70;;
46391;SDS011;32098;49.448;7.904;2024-03-25T01:09:01;4.30;;;2.80;;
46391;SDS011;32098;49.448;7.904;2024-03-25T01:11:27;6.70;;;3.10;;
46391;SDS011;32098;49.448;7.904;2024-03-25T01:13:52;7.77;;;2.60;;
46391;SDS011;32098;49.448;7.904;2024-03-25T01:16:18;4.90;;;2.63;;
46391;SDS011;32098;49.448;7.904;2024-03-25T01:18:44;5.27;;;2.77;;
46391;SDS011;32098;49.448;7.904;2024-03-25T01:21:09;5.30;;;2.60;;
46391;SDS011;32098;49.448;7.904;2024-03-25T01:23:35;7.10;;;2.70;;
46391;SDS011;32098;49.448;7.904;2024-03-25T01:26:01;9.03;;;3.23;;
46391;SDS011;32098;49.448;7.904;2024-03-25T01:28:27;4.97;;;2.70;;
46391;SDS011;32098;49.448;7.904;2024-03-25T01:30:54;6.20;;;3.20;;
46391;SDS011;32098;49.448;7.904;2024-03-25T01:33:19;5.67;;;3.03;;
46391;SDS011;32098;49.448;7.904;2024-03-25T01:35:45;4.50;;;2.80;;
46391;SDS011;32098;49.448;7.904;2024-03-25T01:38:11;6.20;;;3.10;;
46391;SDS011;32098;49.448;7.904;2024-03-25T01:40:37;7.63;;;3.30;;
46391;SDS011;32098;49.448;7.904;2024-03-25T01:43:03;4.77;;;3.10;;
46391;SDS011;32098;49.448;7.904;2024-03-25T01:45:30;6.57;;;3.30;;
46391;SDS011;32098;49.448;7.904;2024-03-25T01:47:58;5.50;;;2.60;;
46391;SDS011;32098;49.448;7.904;2024-03-25T01:50:27;5.63;;;2.50;;
46391;SDS011;32098;49.448;7.904;2024-03-25T01:52:54;8.57;;;2.93;;
46391;SDS011;32098;49.448;7.904;2024-03-25T01:55:25;5.77;;;3.03;;
46391;SDS011;32098;49.448;7.904;2024-03-25T01:57:53;8.40;;;3.23;;
46391;SDS011;32098;49.448;7.904;2024-03-25T02:00:19;4.73;;;2.50;;
46391;SDS011;32098;49.448;7.904;2024-03-25T02:02:47;7.73;;;3.30;;
46391;SDS011;32098;49.448;7.904;2024-03-25T02:05:14;4.00;;;2.73;;
46391;SDS011;32098;49.448;7.904;2024-03-25T02:07:41;6.33;;;2.80;;
46391;SDS011;32098;49.448;7.904;2024-03-25T02:10:08;4.77;;;2.90;;
46391;SDS011;32098;49.448;7.904;2024-03-25T02:12:43;4.20;;;3.03;;
46391;SDS011;32098;49.448;7.904;2024-03-25T02:15:11;5.43;;;3.60;;
46391;SDS011;32098;49.448;7.904;2024-03-25T02:17:40;5.47;;;2.83;;
46391;SDS011;32098;49.448;7.904;2024-03-25T02:20:06;6.37;;;2.90;;
46391;SDS011;32098;49.448;7.904;2024-03-25T02:22:36;6.70;;;3.20;;
46391;SDS011;32098;49.448;7.904;2024-03-25T02:25:05;5.53;;;3.50;;
46391;SDS011;32098;49.448;7.904;2024-03-25T02:27:37;8.03;;;4.03;;
46391;SDS011;32098;49.448;7.904;2024-03-25T02:30:04;6.87;;;3.10;;
46391;SDS011;32098;49.448;7.904;2024-03-25T02:32:32;5.43;;;3.20;;
46391;SDS011;32098;49.448;7.904;2024-03-25T02:34:59;6.93;;;3.50;;
46391;SDS011;32098;49.448;7.904;2024-03-25T02:37:28;8.60;;;3.40;;
46391;SDS011;32098;49.448;7.904;2024-03-25T02:39:54;6.97;;;3.17;;
46391;SDS011;32098;49.448;7.904;2024-03-25T02:42:23;7.70;;;3.63;;
46391;SDS011;32098;49.448;7.904;2024-03-25T02:44:51;6.43;;;2.83;;
46391;SDS011;32098;49.448;7.904;2024-03-25T02:47:16;5.10;;;3.47;;
46391;SDS011;32098;49.448;7.904;2024-03-25T02:49:43;6.53;;;3.23;;
46391;SDS011;32098;49.448;7.904;2024-03-25T02:52:08;6.43;;;2.90;;
46391;SDS011;32098;49.448;7.904;2024-03-25T02:54:34;4.87;;;2.80;;
46391;SDS011;32098;49.448;7.904;2024-03-25T02:57:00;7.87;;;3.33;;
46391;SDS011;32098;49.448;7.904;2024-03-25T02:59:26;5.97;;;3.20;;
46391;SDS011;32098;49.448;7.904;2024-03-25T03:01:52;5.83;;;3.10;;
46391;SDS011;32098;49.448;7.904;2024-03-25T03:04:17;8.00;;;3.63;;
46391;SDS011;32098;49.448;7.904;2024-03-25T03:06:43;8.10;;;3.60;;
46391;SDS011;32098;49.448;7.904;2024-03-25T03:09:09;7.27;;;3.70;;
46391;SDS011;32098;49.448;7.904;2024-03-25T03:11:37;9.67;;;3.50;;
46391;SDS011;32098;49.448;7.904;2024-03-25T03:14:03;5.60;;;2.90;;
46391;SDS011;32098;49.448;7.904;2024-03-25T03:16:29;4.63;;;3.20;;
46391;SDS011;32098;49.448;7.904;2024-03-25T03:18:55;6.77;;;3.23;;
46391;SDS011;32098;49.448;7.904;2024-03-25T03:21:21;4.93;;;3.33;;
46391;SDS011;32098;49.448;7.904;2024-03-25T03:23:47;7.20;;;3.70;;
46391;SDS011;32098;49.448;7.904;2024-03-25T03:26:13;7.00;;;3.70;;
46391;SDS011;32098;49.448;7.904;2024-03-25T03:28:39;6.27;;;3.50;;
46391;SDS011;32098;49.448;7.904;2024-03-25T03:31:05;4.63;;;3.00;;
46391;SDS011;32098;49.448;7.904;2024-03-25T03:33:31;5.37;;;3.47;;
46391;SDS011;32098;49.448;7.904;2024-03-25T03:35:57;7.63;;;3.33;;
46391;SDS011;32098;49.448;7.904;2024-03-25T03:38:23;7.13;;;3.33;;
46391;SDS011;32098;49.448;7.904;2024-03-25T03:41:02;8.73;;;4.13;;
46391;SDS011;32098;49.448;7.904;2024-03-25T03:43:29;8.27;;;4.03;;
46391;SDS011;32098;49.448;7.904;2024-03-25T03:45:54;8.37;;;3.73;;
46391;SDS011;32098;49.448;7.904;2024-03-25T03:48:20;7.30;;;3.80;;
46391;SDS011;32098;49.448;7.904;2024-03-25T03:50:46;8.03;;;3.50;;
46391;SDS011;32098;49.448;7.904;2024-03-25T03:53:12;5.97;;;3.43;;
46391;SDS011;32098;49.448;7.904;2024-03-25T03:55:38;6.50;;;3.33;;
46391;SDS011;32098;49.448;7.904;2024-03-25T03:58:03;5.03;;;3.30;;
46391;SDS011;32098;49.448;7.904;2024-03-25T04:00:34;6.87;;;3.67;;
46391;SDS011;32098;49.448;7.904;2024-03-25T04:03:00;5.30;;;3.03;;
46391;SDS011;32098;49.448;7.904;2024-03-25T04:05:30;3.13;;;2.80;;
46391;SDS011;32098;49.448;7.904;2024-03-25T04:07:56;7.77;;;3.17;;
46391;SDS011;32098;49.448;7.904;2024-03-25T04:10:22;5.37;;;3.20;;
46391;SDS011;32098;49.448;7.904;2024-03-25T04:12:48;4.63;;;3.30;;
46391;SDS011;32098;49.448;7.904;2024-03-25T04:15:14;5.03;;;3.13;;
46391;SDS011;32098;49.448;7.904;2024-03-25T04:17:43;9.07;;;4.83;;
46391;SDS011;32098;49.448;7.904;2024-03-25T04:20:11;10.77;;;5.80;;
46391;SDS011;32098;49.448;7.904;2024-03-25T04:22:40;6.00;;;3.90;;
46391;SDS011;32098;49.448;7.904;2024-03-25T04:25:07;9.57;;;4.30;;
46391;SDS011;32098;49.448;7.904;2024-03-25T04:27:46;8.87;;;4.13;;
46391;SDS011;32098;49.448;7.904;2024-03-25T04:30:12;7.90;;;3.53;;
46391;SDS011;32098;49.448;7.904;2024-03-25T04:32:38;6.77;;;4.07;;
46391;SDS011;32098;49.448;7.904;2024-03-25T04:35:07;7.83;;;4.00;;
46391;SDS011;32098;49.448;7.904;2024-03-25T04:37:33;5.60;;;3.40;;
46391;SDS011;32098;49.448;7.904;2024-03-25T04:40:00;7.17;;;3.53;;
46391;SDS011;32098;49.448;7.904;2024-03-25T04:42:26;7.17;;;3.60;;
46391;SDS011;32098;49.448;7.904;2024-03-25T04:44:52;6.03;;;4.30;;
46391;SDS011;32098;49.448;7.904;2024-03-25T04:47:18;9.13;;;4.33;;
46391;SDS011;32098;49.448;7.904;2024-03-25T04:49:45;7.97;;;4.93;;
46391;SDS011;32098;49.448;7.904;2024-03-25T04:52:14;8.17;;;5.00;;
46391;SDS011;32098;49.448;7.904;2024-03-25T04:54:44;6.77;;;4.50;;
46391;SDS011;32098;49.448;7.904;2024-03-25T04:57:10;7.97;;;4.63;;
46391;SDS011;32098;49.448;7.904;2024-03-25T04:59:37;7.43;;;4.40;;
46391;SDS011;32098;49.448;7.904;2024-03-25T05:02:02;6.47;;;4.53;;
46391;SDS011;32098;49.448;7.904;2024-03-25T05:04:29;6.50;;;4.70;;
46391;SDS011;32098;49.448;7.904;2024-03-25T05:06:55;6.07;;;4.23;;
46391;SDS011;32098;49.448;7.904;2024-03-25T05:09:21;10.77;;;4.40;;
46391;SDS011;32098;49.448;7.904;2024-03-25T05:11:46;7.83;;;4.47;;
46391;SDS011;32098;49.448;7.904;2024-03-25T05:14:12;8.97;;;4.73;;
46391;SDS011;32098;49.448;7.904;2024-03-25T05:16:37;9.10;;;4.93;;
46391;SDS011;32098;49.448;7.904;2024-03-25T05:19:03;7.00;;;3.40;;
46391;SDS011;32098;49.448;7.904;2024-03-25T05:21:30;9.43;;;4.20;;
46391;SDS011;32098;49.448;7.904;2024-03-25T05:23:56;7.53;;;4.00;;
46391;SDS011;32098;49.448;7.904;2024-03-25T05:26:22;7.23;;;5.00;;
46391;SDS011;32098;49.448;7.904;2024-03-25T05:28:56;7.80;;;4.60;;
46391;SDS011;32098;49.448;7.904;2024-03-25T05:31:22;4.53;;;3.80;;
46391;SDS011;32098;49.448;7.904;2024-03-25T05:33:49;7.10;;;3.60;;
46391;SDS011;32098;49.448;7.904;2024-03-25T05:36:15;5.37;;;3.80;;
46391;SDS011;32098;49.448;7.904;2024-03-25T05:38:41;6.30;;;3.70;;
46391;SDS011;32098;49.448;7.904;2024-03-25T05:41:08;11.33;;;5.80;;
46391;SDS011;32098;49.448;7.904;2024-03-25T05:43:34;7.83;;;5.20;;
46391;SDS011;32098;49.448;7.904;2024-03-25T05:46:00;5.67;;;3.73;;
46391;SDS011;32098;49.448;7.904;2024-03-25T05:48:27;5.57;;;3.40;;
46391;SDS011;32098;49.448;7.904;2024-03-25T05:51:00;6.80;;;3.60;;
46391;SDS011;32098;49.448;7.904;2024-03-25T05:53:28;5.17;;;3.07;;
46391;SDS011;32098;49.448;7.904;2024-03-25T05:55:54;7.00;;;3.40;;
46391;SDS011;32098;49.448;7.904;2024-03-25T05:58:21;9.60;;;3.70;;
46391;SDS011;32098;49.448;7.904;2024-03-25T06:00:47;5.83;;;3.57;;
46391;SDS011;32098;49.448;7.904;2024-03-25T06:03:14;5.80;;;4.20;;
46391;SDS011;32098;49.448;7.904;2024-03-25T06:05:40;5.83;;;3.80;;
46391;SDS011;32098;49.448;7.904;2024-03-25T06:08:06;5.60;;;3.23;;
46391;SDS011;32098;49.448;7.904;2024-03-25T06:10:37;7.97;;;4.07;;
46391;SDS011;32098;49.448;7.904;2024-03-25T06:13:03;6.60;;;4.10;;
46391;SDS011;32098;49.448;7.904;2024-03-25T06:15:29;5.53;;;3.63;;
46391;SDS011;32098;49.448;7.904;2024-03-25T06:17:55;8.03;;;4.20;;
46391;SDS011;32098;49.448;7.904;2024-03-25T06:20:21;8.63;;;4.90;;
46391;SDS011;32098;49.448;7.904;2024-03-25T06:22:46;7.97;;;3.87;;
46391;SDS011;32098;49.448;7.904;2024-03-25T06:25:12;7.57;;;4.80;;
46391;SDS011;32098;49.448;7.904;2024-03-25T06:27:38;5.40;;;3.93;;
46391;SDS011;32098;49.448;7.904;2024-03-25T06:30:04;9.30;;;3.87;;
46391;SDS011;32098;49.448;7.904;2024-03-25T06:32:49;5.80;;;3.83;;
46391;SDS011;32098;49.448;7.904;2024-03-25T06:35:38;6.00;;;3.83;;
46391;SDS011;32098;49.448;7.904;2024-03-25T06:38:04;7.43;;;4.80;;
46391;SDS011;32098;49.448;7.904;2024-03-25T06:40:30;10.93;;;7.00;;
46391;SDS011;32098;49.448;7.904;2024-03-25T06:42:56;6.70;;;4.20;;
46391;SDS011;32098;49.448;7.904;2024-03-25T06:45:22;7.30;;;4.00;;
46391;SDS011;32098;49.448;7.904;2024-03-25T06:47:48;9.33;;;4.30;;
46391;SDS011;32098;49.448;7.904;2024-03-25T06:50:15;4.87;;;3.77;;
46391;SDS011;32098;49.448;7.904;2024-03-25T06:52:40;7.70;;;5.33;;
46391;SDS011;32098;49.448;7.904;2024-03-25T06:55:07;7.43;;;5.33;;
46391;SDS011;32098;49.448;7.904;2024-03-25T06:57:33;7.83;;;5.80;;
46391;SDS011;32098;49.448;7.904;2024-03-25T07:00:00;7.30;;;5.53;;
46391;SDS011;32098;49.448;7.904;2024-03-25T07:02:26;8.50;;;6.03;;
46391;SDS011;32098;49.448;7.904;2024-03-25T07:04:52;10.43;;;5.87;;
46391;SDS011;32098;49.448;7.904;2024-03-25T07:07:18;8.80;;;5.80;;
46391;SDS011;32098;49.448;7.904;2024-03-25T07:09:43;9.33;;;5.87;;
46391;SDS011;32098;49.448;7.904;2024-03-25T07:12:09;8.30;;;5.97;;
46391;SDS011;32098;49.448;7.904;2024-03-25T07:14:35;11.77;;;7.77;;
46391;SDS011;32098;49.448;7.904;2024-03-25T07:17:01;8.50;;;6.33;;
46391;SDS011;32098;49.448;7.904;2024-03-25T07:19:26;8.77;;;6.37;;
46391;SDS011;32098;49.448;7.904;2024-03-25T07:21:52;13.20;;;7.13;;
46391;SDS011;32098;49.448;7.904;2024-03-25T07:24:18;11.00;;;7.77;;
46391;SDS011;32098;49.448;7.904;2024-03-25T07:26:43;10.97;;;7.03;;
46391;SDS011;32098;49.448;7.904;2024-03-25T07:29:09;10.83;;;6.97;;
46391;SDS011;32098;49.448;7.904;2024-03-25T07:31:35;11.93;;;7.20;;
46391;SDS011;32098;49.448;7.904;2024-03-25T07:34:01;11.03;;;7.07;;
46391;SDS011;32098;49.448;7.904;2024-03-25T07:36:27;11.83;;;7.50;;
46391;SDS011;32098;49.448;7.904;2024-03-25T07:38:54;12.07;;;7.00;;
46391;SDS011;32098;49.448;7.904;2024-03-25T07:41:20;10.87;;;7.17;;
46391;SDS011;32098;49.448;7.904;2024-03-25T07:43:46;13.57;;;7.60;;
46391;SDS011;32098;49.448;7.904;2024-03-25T07:46:12;9.93;;;6.73;;
46391;SDS011;32098;49.448;7.904;2024-03-25T07:48:37;10.27;;;7.30;;
46391;SDS011;32098;49.448;7.904;2024-03-25T07:51:03;10.37;;;6.53;;
46391;SDS011;32098;49.448;7.904;2024-03-25T07:53:29;9.50;;;6.23;;
46391;SDS011;32098;49.448;7.904;2024-03-25T07:55:55;10.03;;;6.60;;
46391;SDS011;32098;49.448;7.904;2024-03-25T07:58:20;9.63;;;7.10;;
46391;SDS011;32098;49.448;7.904;2024-03-25T08:00:48;10.18;;;6.82;;
46391;SDS011;32098;49.448;7.904;2024-03-25T08:03:13;10.43;;;7.10;;
46391;SDS011;32098;49.448;7.904;2024-03-25T08:05:39;7.95;;;6.38;;
46391;SDS011;32098;49.448;7.904;2024-03-25T08:08:05;11.33;;;6.87;;
46391;SDS011;32098;49.448;7.904;2024-03-25T08:10:31;9.83;;;6.43;;
46391;SDS011;32098;49.448;7.904;2024-03-25T08:12:56;9.32;;;6.82;;
46391;SDS011;32098;49.448;7.904;2024-03-25T08:15:22;9.80;;;6.60;;
46391;SDS011;32098;49.448;7.904;2024-03-25T08:17:48;9.43;;;6.60;;
46391;SDS011;32098;49.448;7.904;2024-03-25T08:20:14;11.23;;;6.60;;
46391;SDS011;32098;49.448;7.904;2024-03-25T08:22:39;8.93;;;6.70;;
46391;SDS011;32098;49.448;7.904;2024-03-25T08:25:06;8.43;;;6.22;;
46391;SDS011;32098;49.448;7.904;2024-03-25T08:27:32;8.60;;;6.43;;
46391;SDS011;32098;49.448;7.904;2024-03-25T08:29:58;9.23;;;6.03;;
46391;SDS011;32098;49.448;7.904;2024-03-25T08:32:23;10.32;;;6.65;;
46391;SDS011;32098;49.448;7.904;2024-03-25T08:34:49;8.13;;;6.28;;
46391;SDS011;32098;49.448;7.904;2024-03-25T08:37:14;9.02;;;5.60;;
46391;SDS011;32098;49.448;7.904;2024-03-25T08:39:40;7.22;;;5.40;;
46391;SDS011;32098;49.448;7.904;2024-03-25T08:42:06;7.22;;;5.15;;
46391;SDS011;32098;49.448;7.904;2024-03-25T08:44:33;8.73;;;6.07;;
46391;SDS011;32098;49.448;7.904;2024-03-25T08:46:58;6.43;;;4.85;;
46391;SDS011;32098;49.448;7.904;2024-03-25T08:49:24;9.32;;;5.28;;
46391;SDS011;32098;49.448;7.904;2024-03-25T08:51:49;7.75;;;5.05;;
46391;SDS011;32098;49.448;7.904;2024-03-25T08:54:15;7.25;;;5.20;;
46391;SDS011;32098;49.448;7.904;2024-03-25T08:56:42;7.65;;;5.18;;
46391;SDS011;32098;49.448;7.904;2024-03-25T08:59:07;6.47;;;4.00;;
46391;SDS011;32098;49.448;7.904;2024-03-25T09:01:36;5.88;;;3.65;;
46391;SDS011;32098;49.448;7.904;2024-03-25T09:04:02;4.68;;;3.30;;
46391;SDS011;32098;49.448;7.904;2024-03-25T09:06:29;7.10;;;4.13;;
46391;SDS011;32098;49.448;7.904;2024-03-25T09:08:54;6.93;;;3.97;;
46391;SDS011;32098;49.448;7.904;2024-03-25T09:11:39;6.47;;;3.88;;
46391;SDS011;32098;49.448;7.904;2024-03-25T09:14:05;4.88;;;3.17;;
46391;SDS011;32098;49.448;7.904;2024-03-25T09:16:31;4.20;;;2.70;;
46391;SDS011;32098;49.448;7.904;2024-03-25T09:18:57;5.30;;;3.10;;
46391;SDS011;32098;49.448;7.904;2024-03-25T09:21:24;4.15;;;2.35;;
46391;SDS011;32098;49.448;7.904;2024-03-25T09:23:51;3.33;;;2.70;;
46391;SDS011;32098;49.448;7.904;2024-03-25T09:26:17;4.75;;;2.13;;
46391;SDS011;32098;49.448;7.904;2024-03-25T09:28:42;4.18;;;2.83;;
46391;SDS011;32098;49.448;7.904;2024-03-25T09:31:08;4.57;;;2.60;;
46391;SDS011;32098;49.448;7.904;2024-03-25T09:33:33;5.05;;;2.35;;
46391;SDS011;32098;49.448;7.904;2024-03-25T09:35:59;4.53;;;2.50;;
46391;SDS011;32098;49.448;7.904;2024-03-25T09:38:25;4.20;;;2.30;;
46391;SDS011;32098;49.448;7.904;2024-03-25T09:40:52;3.28;;;2.10;;
46391;SDS011;32098;49.448;7.904;2024-03-25T09:43:21;4.35;;;1.88;;
46391;SDS011;32098;49.448;7.904;2024-03-25T09:45:50;3.83;;;1.90;;
46391;SDS011;32098;49.448;7.904;2024-03-25T09:48:18;5.70;;;1.92;;
46391;SDS011;32098;49.448;7.904;2024-03-25T09:50:46;3.42;;;2.17;;
46391;SDS011;32098;49.448;7.904;2024-03-25T09:53:12;2.83;;;1.88;;
46391;SDS011;32098;49.448;7.904;2024-03-25T09:55:38;4.65;;;2.20;;
46391;SDS011;32098;49.448;7.904;2024-03-25T09:58:04;4.35;;;2.40;;
46391;SDS011;32098;49.448;7.904;2024-03-25T10:00:31;4.03;;;1.80;;
46391;SDS011;32098;49.448;7.904;2024-03-25T10:02:56;3.78;;;2.00;;
46391;SDS011;32098;49.448;7.904;2024-03-25T10:05:22;4.72;;;2.47;;
46391;SDS011;32098;49.448;7.904;2024-03-25T10:07:48;6.25;;;2.67;;
46391;SDS011;32098;49.448;7.904;2024-03-25T10:10:13;4.63;;;2.45;;
46391;SDS011;32098;49.448;7.904;2024-03-25T10:12:46;4.88;;;2.20;;
46391;SDS011;32098;49.448;7.904;2024-03-25T10:15:15;3.25;;;2.20;;
46391;SDS011;32098;49.448;7.904;2024-03-25T10:17:42;5.55;;;2.53;;
46391;SDS011;32098;49.448;7.904;2024-03-25T10:20:15;4.90;;;2.28;;
46391;SDS011;32098;49.448;7.904;2024-03-25T10:22:42;4.60;;;2.30;;
46391;SDS011;32098;49.448;7.904;2024-03-25T10:25:30;4.28;;;2.30;;
46391;SDS011;32098;49.448;7.904;2024-03-25T10:28:00;4.05;;;1.77;;
46391;SDS011;32098;49.448;7.904;2024-03-25T10:30:27;4.10;;;2.00;;
46391;SDS011;32098;49.448;7.904;2024-03-25T10:32:57;4.07;;;2.30;;
46391;SDS011;32098;49.448;7.904;2024-03-25T10:35:26;5.03;;;2.00;;
46391;SDS011;32098;49.448;7.904;2024-03-25T10:37:55;4.10;;;2.35;;
46391;SDS011;32098;49.448;7.904;2024-03-25T10:40:29;3.55;;;2.03;;
46391;SDS011;32098;49.448;7.904;2024-03-25T10:45:29;6.40;;;2.13;;
46391;SDS011;32098;49.448;7.904;2024-03-25T10:48:03;3.25;;;2.00;;
46391;SDS011;32098;49.448;7.904;2024-03-25T10:50:43;2.83;;;1.90;;
46391;SDS011;32098;49.448;7.904;2024-03-25T10:53:10;5.57;;;1.85;;
46391;SDS011;32098;49.448;7.904;2024-03-25T10:55:36;3.72;;;1.92;;
46391;SDS011;32098;49.448;7.904;2024-03-25T10:58:03;4.88;;;1.95;;
46391;SDS011;32098;49.448;7.904;2024-03-25T11:00:30;2.58;;;1.63;;
46391;SDS011;32098;49.448;7.904;2024-03-25T11:02:57;3.25;;;1.65;;
46391;SDS011;32098;49.448;7.904;2024-03-25T11:05:24;2.17;;;1.43;;
46391;SDS011;32098;49.448;7.904;2024-03-25T11:07:51;5.93;;;2.13;;
46391;SDS011;32098;49.448;7.904;2024-03-25T11:10:16;2.85;;;1.50;;
46391;SDS011;32098;49.448;7.904;2024-03-25T11:12:42;2.83;;;1.40;;
46391;SDS011;32098;49.448;7.904;2024-03-25T11:15:08;3.55;;;1.73;;
46391;SDS011;32098;49.448;7.904;2024-03-25T11:17:35;2.92;;;1.50;;
46391;SDS011;32098;49.448;7.904;2024-03-25T11:20:09;3.33;;;1.85;;
46391;SDS011;32098;49.448;7.904;2024-03-25T11:22:36;2.75;;;1.60;;
46391;SDS011;32098;49.448;7.904;2024-03-25T11:25:05;2.15;;;1.67;;
46391;SDS011;32098;49.448;7.904;2024-03-25T11:27:35;2.85;;;1.30;;
46391;SDS011;32098;49.448;7.904;2024-03-25T11:30:03;2.97;;;1.40;;
46391;SDS011;32098;49.448;7.904;2024-03-25T11:32:41;3.53;;;1.42;;
46391;SDS011;32098;49.448;7.904;2024-03-25T11:35:08;2.80;;;1.52;;
46391;SDS011;32098;49.448;7.904;2024-03-25T11:37:39;4.03;;;1.70;;
46391;SDS011;32098;49.448;7.904;2024-03-25T11:40:08;4.15;;;1.83;;
46391;SDS011;32098;49.448;7.904;2024-03-25T11:42:38;2.72;;;1.25;;
46391;SDS011;32098;49.448;7.904;2024-03-25T11:45:07;1.88;;;1.27;;
46391;SDS011;32098;49.448;7.904;2024-03-25T11:47:43;1.77;;;1.20;;
46391;SDS011;32098;49.448;7.904;2024-03-25T11:50:10;2.60;;;1.45;;
46391;SDS011;32098;49.448;7.904;2024-03-25T11:52:37;2.70;;;1.63;;
46391;SDS011;32098;49.448;7.904;2024-03-25T11:55:03;3.80;;;1.63;;
46391;SDS011;32098;49.448;7.904;2024-03-25T11:57:29;3.17;;;1.53;;
46391;SDS011;32098;49.448;7.904;2024-03-25T11:59:55;3.77;;;1.40;;
46391;SDS011;32098;49.448;7.904;2024-03-25T12:02:23;3.47;;;1.60;;
46391;SDS011;32098;49.448;7.904;2024-03-25T12:04:50;2.77;;;1.70;;
46391;SDS011;32098;49.448;7.904;2024-03-25T12:07:16;3.37;;;1.87;;
46391;SDS011;32098;49.448;7.904;2024-03-25T12:09:41;3.57;;;1.50;;
46391;SDS011;32098;49.448;7.904;2024-03-25T12:12:27;2.87;;;1.30;;
46391;SDS011;32098;49.448;7.904;2024-03-25T12:14:53;2.80;;;1.67;;
46391;SDS011;32098;49.448;7.904;2024-03-25T12:17:21;3.67;;;1.80;;
46391;SDS011;32098;49.448;7.904;2024-03-25T12:22:32;4.23;;;1.80;;
46391;SDS011;32098;49.448;7.904;2024-03-25T12:25:02;3.30;;;1.77;;
46391;SDS011;32098;49.448;7.904;2024-03-25T12:27:30;3.27;;;1.90;;
46391;SDS011;32098;49.448;7.904;2024-03-25T12:29:59;3.40;;;1.50;;
46391;SDS011;32098;49.448;7.904;2024-03-25T12:32:35;3.20;;;1.60;;
46391;SDS011;32098;49.448;7.904;2024-03-25T12:35:17;2.60;;;1.63;;
46391;SDS011;32098;49.448;7.904;2024-03-25T12:37:47;4.13;;;1.80;;
46391;SDS011;32098;49.448;7.904;2024-03-25T12:40:26;2.30;;;1.50;;
46391;SDS011;32098;49.448;7.904;2024-03-25T12:42:53;5.77;;;2.30;;
46391;SDS011;32098;49.448;7.904;2024-03-25T12:45:22;3.37;;;1.83;;
46391;SDS011;32098;49.448;7.904;2024-03-25T12:47:51;3.87;;;1.50;;
46391;SDS011;32098;49.448;7.904;2024-03-25T12:50:17;3.43;;;1.57;;
46391;SDS011;32098;49.448;7.904;2024-03-25T12:52:49;5.13;;;2.03;;
46391;SDS011;32098;49.448;7.904;2024-03-25T12:55:15;4.13;;;1.90;;
46391;SDS011;32098;49.448;7.904;2024-03-25T12:57:41;4.53;;;1.70;;
46391;SDS011;32098;49.448;7.904;2024-03-25T13:00:07;6.43;;;1.77;;
46391;SDS011;32098;49.448;7.904;2024-03-25T13:02:33;3.47;;;1.70;;
46391;SDS011;32098;49.448;7.904;2024-03-25T13:05:05;3.20;;;2.00;;
46391;SDS011;32098;49.448;7.904;2024-03-25T13:07:30;3.40;;;1.87;;
46391;SDS011;32098;49.448;7.904;2024-03-25T13:09:57;3.27;;;1.83;;
46391;SDS011;32098;49.448;7.904;2024-03-25T13:12:23;5.70;;;2.23;;
46391;SDS011;32098;49.448;7.904;2024-03-25T13:14:50;4.27;;;2.00;;
46391;SDS011;32098;49.448;7.904;2024-03-25T13:17:16;4.27;;;2.23;;
46391;SDS011;32098;49.448;7.904;2024-03-25T13:19:42;4.10;;;2.10;;
46391;SDS011;32098;49.448;7.904;2024-03-25T13:22:07;4.80;;;1.83;;
46391;SDS011;32098;49.448;7.904;2024-03-25T13:24:33;2.67;;;1.50;;
46391;SDS011;32098;49.448;7.904;2024-03-25T13:26:59;2.93;;;1.50;;
46391;SDS011;32098;49.448;7.904;2024-03-25T13:29:25;3.10;;;1.40;;
46391;SDS011;32098;49.448;7.904;2024-03-25T13:31:52;3.33;;;1.30;;
46391;SDS011;32098;49.448;7.904;2024-03-25T13:34:18;2.33;;;1.33;;
46391;SDS011;32098;49.448;7.904;2024-03-25T13:36:45;4.23;;;1.20;;
46391;SDS011;32098;49.448;7.904;2024-03-25T13:39:11;4.83;;;1.40;;
46391;SDS011;32098;49.448;7.904;2024-03-25T13:41:37;2.07;;;1.30;;
46391;SDS011;32098;49.448;7.904;2024-03-25T13:44:03;2.83;;;1.73;;
46391;SDS011;32098;49.448;7.904;2024-03-25T13:46:29;3.57;;;1.60;;
46391;SDS011;32098;49.448;7.904;2024-03-25T13:48:55;2.60;;;1.30;;
46391;SDS011;32098;49.448;7.904;2024-03-25T13:51:20;2.70;;;1.30;;
46391;SDS011;32098;49.448;7.904;2024-03-25T13:53:46;2.00;;;1.37;;
46391;SDS011;32098;49.448;7.904;2024-03-25T13:56:12;3.13;;;1.40;;
46391;SDS011;32098;49.448;7.904;2024-03-25T13:58:37;4.47;;;1.63;;
46391;SDS011;32098;49.448;7.904;2024-03-25T14:01:03;3.65;;;1.45;;
46391;SDS011;32098;49.448;7.904;2024-03-25T14:03:29;3.95;;;1.50;;
46391;SDS011;32098;49.448;7.904;2024-03-25T14:05:54;3.20;;;1.33;;
46391;SDS011;32098;49.448;7.904;2024-03-25T14:08:20;4.20;;;1.30;;
46391;SDS011;32098;49.448;7.904;2024-03-25T14:10:56;4.53;;;1.77;;
46391;SDS011;32098;49.448;7.904;2024-03-25T14:13:24;3.20;;;1.50;;
46391;SDS011;32098;49.448;7.904;2024-03-25T14:15:51;2.00;;;1.43;;
46391;SDS011;32098;49.448;7.904;2024-03-25T14:18:16;2.13;;;1.50;;
46391;SDS011;32098;49.448;7.904;2024-03-25T14:20:42;3.40;;;1.27;;
46391;SDS011;32098;49.448;7.904;2024-03-25T14:23:08;2.33;;;1.30;;
46391;SDS011;32098;49.448;7.904;2024-03-25T14:25:34;3.83;;;1.23;;
46391;SDS011;32098;49.448;7.904;2024-03-25T14:28:00;2.00;;;1.80;;
46391;SDS011;32098;49.448;7.904;2024-03-25T14:30:25;3.63;;;1.53;;
46391;SDS011;32098;49.448;7.904;2024-03-25T14:32:51;2.43;;;1.50;;
46391;SDS011;32098;49.448;7.904;2024-03-25T14:35:17;2.77;;;1.23;;
46391;SDS011;32098;49.448;7.904;2024-03-25T14:37:44;2.37;;;1.30;;
46391;SDS011;32098;49.448;7.904;2024-03-25T14:40:10;3.33;;;1.33;;
46391;SDS011;32098;49.448;7.904;2024-03-25T14:42:38;2.63;;;1.50;;
46391;SDS011;32098;49.448;7.904;2024-03-25T14:45:03;2.07;;;1.30;;
46391;SDS011;32098;49.448;7.904;2024-03-25T14:47:31;2.53;;;1.50;;
46391;SDS011;32098;49.448;7.904;2024-03-25T14:49:56;2.63;;;1.63;;
46391;SDS011;32098;49.448;7.904;2024-03-25T14:52:23;4.53;;;1.60;;